createdAt,value
2022-11-11T00:01:48.833Z,0.77
2022-11-11T00:07:59.535Z,1.85
2022-11-11T00:14:05.153Z,0.50
2022-11-11T00:20:33.495Z,0.73
2022-11-11T00:26:42.261Z,0.93
2022-11-11T00:32:47.511Z,1.30
2022-11-11T00:38:55.811Z,1.40
2022-11-11T00:45:01.191Z,1.52
2022-11-11T00:51:06.792Z,1.42
2022-11-11T00:57:12.633Z,1.00
2022-11-11T01:03:17.601Z,0.88
2022-11-11T01:09:23.269Z,1.20
2022-11-11T01:15:28.739Z,0.70
2022-11-11T01:21:36.253Z,0.90
2022-11-11T01:27:41.779Z,1.17
2022-11-11T01:33:47.581Z,1.02
2022-11-11T01:39:54.348Z,0.90
2022-11-11T01:46:03.728Z,1.08
2022-11-11T01:52:18.357Z,0.70
2022-11-11T01:58:23.604Z,1.17
2022-11-11T02:04:48.242Z,1.35
2022-11-11T02:10:56.090Z,0.85
2022-11-11T02:17:05.298Z,0.90
2022-11-11T02:23:14.652Z,1.00
2022-11-11T02:29:21.893Z,1.08
2022-11-11T02:35:33.789Z,2.15
2022-11-11T02:41:57.160Z,0.98
2022-11-11T02:48:03.038Z,1.27
2022-11-11T02:54:08.655Z,0.80
2022-11-11T03:00:14.938Z,0.85
2022-11-11T03:06:26.677Z,0.63
2022-11-11T03:12:32.144Z,0.80
2022-11-11T03:18:37.553Z,1.23
2022-11-11T03:25:01.358Z,0.90
2022-11-11T03:31:06.445Z,2.08
2022-11-11T03:37:30.971Z,0.73
2022-11-11T03:43:35.949Z,0.88
2022-11-11T03:49:41.301Z,1.02
2022-11-11T03:55:51.314Z,0.98
2022-11-11T04:02:15.133Z,0.75
2022-11-11T04:08:40.559Z,1.00
2022-11-11T04:15:04.377Z,0.93
2022-11-11T04:21:28.354Z,0.73
2022-11-11T04:27:33.414Z,0.98
2022-11-11T04:33:39.992Z,1.50
2022-11-11T04:40:06.015Z,0.52
2022-11-11T04:46:11.313Z,1.05
2022-11-11T04:52:31.651Z,1.67
2022-11-11T04:58:36.815Z,1.20
2022-11-11T05:04:42.118Z,0.80
2022-11-11T05:10:47.463Z,1.15
2022-11-11T05:17:14.037Z,0.82
2022-11-11T05:23:19.251Z,0.70
2022-11-11T05:29:24.661Z,0.90
2022-11-11T05:35:36.724Z,1.25
2022-11-11T05:41:42.076Z,0.73
2022-11-11T05:47:47.602Z,1.55
2022-11-11T05:53:52.927Z,1.33
2022-11-11T05:59:59.071Z,1.23
2022-11-11T06:06:05.675Z,1.35
2022-11-11T06:12:10.947Z,1.40
2022-11-11T06:18:16.325Z,1.00
2022-11-11T06:24:26.024Z,1.48
2022-11-11T06:36:57.672Z,1.23
2022-11-11T06:43:03.205Z,1.30
2022-11-11T06:49:08.436Z,1.90
2022-11-11T06:55:14.427Z,1.45
2022-11-11T07:01:20.914Z,1.52
2022-11-11T07:07:29.865Z,1.33
2022-11-11T07:13:36.198Z,1.63
2022-11-11T07:19:44.645Z,1.08
2022-11-11T07:25:49.954Z,1.27
2022-11-11T07:31:55.655Z,1.33
2022-11-11T07:38:03.309Z,1.10
2022-11-11T07:44:08.853Z,1.58
2022-11-11T07:50:14.504Z,0.95
2022-11-11T07:56:20.061Z,1.20
2022-11-11T08:02:30.591Z,1.25
2022-11-11T08:08:36.441Z,1.02
2022-11-11T08:14:43.142Z,3.92
2022-11-11T08:20:54.519Z,1.23
2022-11-11T08:27:04.960Z,1.27
2022-11-11T08:33:32.309Z,1.17
2022-11-11T08:39:36.498Z,1.27
2022-11-11T08:45:41.723Z,1.38
2022-11-11T08:51:47.350Z,4.65
2022-11-11T08:58:05.694Z,1.45
2022-11-11T09:04:42.662Z,1.63
2022-11-11T09:10:38.985Z,1.77
2022-11-11T09:16:44.249Z,1.55
2022-11-11T09:22:51.207Z,1.63
2022-11-11T09:28:56.226Z,1.88
2022-11-11T09:35:01.721Z,1.95
2022-11-11T09:41:25.187Z,1.73
2022-11-11T09:47:50.164Z,1.83
2022-11-11T09:54:05.389Z,2.30
2022-11-11T10:00:29.261Z,1.27
2022-11-11T10:06:36.384Z,1.70
2022-11-11T10:12:56.060Z,1.58
2022-11-11T10:19:23.403Z,1.70
2022-11-11T10:25:28.855Z,1.20
2022-11-11T10:31:35.024Z,2.03
2022-11-11T10:37:42.333Z,1.60
2022-11-11T10:43:47.818Z,1.85
2022-11-11T10:49:57.760Z,1.77
2022-11-11T10:56:22.208Z,1.73
2022-11-11T11:02:39.959Z,1.92
2022-11-11T11:08:53.124Z,1.42
2022-11-11T11:15:04.317Z,2.05
2022-11-11T11:21:09.645Z,1.30
2022-11-11T11:27:26.542Z,1.60
2022-11-11T11:33:54.494Z,1.60
2022-11-11T11:40:01.802Z,2.00
2022-11-11T11:46:30.914Z,1.33
2022-11-11T11:52:50.114Z,1.65
2022-11-11T11:59:13.589Z,1.92
2022-11-11T12:05:27.443Z,1.60
2022-11-11T12:11:50.735Z,1.90
2022-11-11T12:18:14.107Z,1.85
2022-11-11T12:24:31.851Z,1.58
2022-11-11T12:30:44.829Z,1.10
2022-11-11T12:43:17.833Z,1.48
2022-11-11T12:49:43.806Z,1.73
2022-11-11T12:56:33.944Z,1.67
2022-11-11T13:03:08.174Z,1.85
2022-11-11T13:09:39.460Z,1.52
2022-11-11T13:15:45.014Z,1.60
2022-11-11T13:22:05.789Z,1.50
2022-11-11T13:28:16.694Z,1.58
2022-11-11T13:34:23.222Z,1.40
2022-11-11T13:40:40.856Z,1.55
2022-11-11T13:46:50.111Z,1.20
2022-11-11T13:53:25.647Z,1.20
2022-11-11T13:59:35.254Z,1.40
2022-11-11T14:05:40.570Z,1.20
2022-11-11T14:11:49.869Z,1.42
2022-11-11T14:17:58.912Z,1.48
2022-11-11T14:24:04.373Z,1.73
2022-11-11T14:30:26.814Z,1.20
2022-11-11T14:36:39.512Z,1.52
2022-11-11T14:42:45.425Z,1.93
2022-11-11T14:48:59.670Z,1.30
2022-11-11T14:55:19.196Z,1.35
2022-11-11T15:01:25.932Z,1.73
2022-11-11T15:07:56.628Z,1.25
2022-11-11T15:14:32.656Z,1.75
2022-11-11T15:20:47.212Z,1.25
2022-11-11T15:27:05.435Z,0.98
2022-11-11T15:33:48.454Z,1.30
2022-11-11T15:39:57.547Z,2.00
2022-11-11T15:46:05.284Z,1.10
2022-11-11T15:52:25.517Z,1.38
2022-11-11T15:58:33.206Z,1.50
2022-11-11T16:04:55.775Z,1.13
2022-11-11T16:17:09.141Z,1.38
2022-11-11T16:23:18.796Z,1.80
2022-11-11T16:29:34.278Z,2.13
2022-11-11T16:35:40.813Z,1.88
2022-11-11T16:41:53.855Z,1.45
2022-11-11T16:48:02.347Z,1.73
2022-11-11T16:54:22.863Z,2.53
2022-11-11T17:00:29.887Z,1.58
2022-11-11T17:06:54.465Z,1.30
2022-11-11T17:13:03.399Z,1.75
2022-11-11T17:19:11.352Z,1.15
2022-11-11T17:25:36.133Z,1.45
2022-11-11T17:32:02.426Z,2.00
2022-11-11T17:38:08.019Z,1.77
2022-11-11T17:44:13.677Z,2.10
2022-11-11T17:50:18.989Z,1.65
2022-11-11T17:56:30.557Z,1.85
2022-11-11T18:02:36.266Z,1.70
2022-11-11T18:08:41.992Z,1.63
2022-11-11T18:14:47.519Z,1.60
2022-11-11T18:20:53.482Z,1.70
2022-11-11T18:27:04.039Z,1.65
2022-11-11T18:33:19.886Z,1.38
2022-11-11T18:39:25.277Z,1.20
2022-11-11T18:45:30.983Z,2.53
2022-11-11T18:51:36.479Z,2.63
2022-11-11T18:57:44.842Z,1.40
2022-11-11T19:03:52.274Z,2.03
2022-11-11T19:09:58.122Z,1.42
2022-11-11T19:16:06.264Z,1.48
2022-11-11T19:22:21.446Z,1.55
2022-11-11T19:28:27.208Z,2.40
2022-11-11T19:34:35.753Z,2.00
2022-11-11T19:40:41.155Z,1.52
2022-11-11T19:46:46.794Z,2.00
2022-11-11T19:52:52.353Z,1.75
2022-11-11T19:58:58.125Z,1.95
2022-11-11T20:05:04.389Z,1.50
2022-11-11T20:11:10.059Z,1.92
2022-11-11T20:17:15.769Z,2.40
2022-11-11T20:23:25.444Z,2.88
2022-11-11T20:29:31.573Z,2.88
2022-11-11T20:35:38.624Z,2.63
2022-11-11T20:41:44.961Z,2.78
2022-11-11T20:47:50.353Z,2.95
2022-11-11T20:53:57.414Z,3.65
2022-11-11T21:00:06.273Z,4.05
2022-11-11T21:06:14.052Z,4.57
2022-11-11T21:12:19.575Z,4.75
2022-11-11T21:18:34.490Z,4.38
2022-11-11T21:24:42.326Z,4.35
2022-11-11T21:30:47.840Z,5.28
2022-11-11T21:36:53.560Z,5.25
2022-11-11T21:42:59.086Z,5.60
2022-11-11T21:49:05.314Z,6.35
2022-11-11T21:55:10.808Z,6.10
2022-11-11T22:01:20.728Z,6.38
2022-11-11T22:07:27.212Z,6.78
2022-11-11T22:13:33.290Z,6.68
2022-11-11T22:19:38.649Z,7.25
2022-11-11T22:25:45.418Z,6.40
2022-11-11T22:31:51.126Z,6.65
2022-11-11T22:37:59.114Z,6.20
2022-11-11T22:44:05.189Z,6.22
2022-11-11T22:50:12.319Z,5.68
2022-11-11T22:56:19.542Z,5.38
2022-11-11T23:02:25.511Z,5.72
2022-11-11T23:08:33.866Z,5.57
2022-11-11T23:14:39.404Z,5.80
2022-11-11T23:20:56.273Z,5.78
2022-11-11T23:27:05.611Z,5.07
2022-11-11T23:33:11.009Z,5.25
2022-11-11T23:39:16.093Z,5.75
2022-11-11T23:45:27.557Z,5.60
2022-11-11T23:58:50.787Z,4.85
